Edwards Crossroads, North Carolina
Current Conditions -  °F | °C
As of 2:35 PM on Friday 31 Oct 2014 (Local Time) from KGEV Reporting Station
Broken Clouds Broken Clouds  
Wind Chill:   Ceiling: 3600
Heat Index:   Visibility: 10mi
Dew Point:   Wind: 0mph
Humidity: 63%   Direction: NA
Pressure: 29.82"   Gusts: NA
Location:  36.5212°N, 81.1574°W
Report Text: KGEV 311835Z AUTO 00000KT 10SM BKN036 BKN100 09/02 A2982 RMK AO2 T00900024
Loading
Personal Weather Stations






























Interactive Weather Map
Tropical Storm Tracking
New forecast layout! Learn more

10-Day Weather Forecast

Advertisements
Track Severe Weather on mobile